Time;durP1;ratioP1;P1;durP2;ratioP2;P2;SDS_P1;SDS_P2;PMS_P1;PMS_P2;Temp;Humidity;BMP_temperature;BMP_pressure;BME280_temperature;BME280_humidity;BME280_pressure;Samples;Min_cycle;Max_cycle;Signal;HPM_P1;HPM_P2
2023/03/16 00:00:12;;;;;;;;;;;;;;;;;;5065841;28;20412;-60
2023/03/16 00:02:38;;;;;;;;;;;;;;;;;;5066295;28;20354;-61
2023/03/16 00:05:04;;;;;;;;;;;;;;;;;;5065731;28;20389;-60
2023/03/16 00:07:30;;;;;;;;;;;;;;;;;;5066066;28;19977;-61
2023/03/16 00:09:56;;;;;;;;;;;;;;;;;;5066487;28;19924;-60
2023/03/16 00:12:24;;;;;;;;;;;;;;;;;;5062505;28;19993;-61
2023/03/16 00:14:50;;;;;;;;;;;;;;;;;;5064882;28;19954;-61
2023/03/16 00:17:19;;;;;;;;;;;;;;;;;;5066000;28;19954;-60
2023/03/16 00:19:45;;;;;;;;;;;;;;;;;;5066154;28;19986;-60
2023/03/16 00:22:13;;;;;;;;;;;;;;;;;;5065740;28;19947;-60
2023/03/16 00:24:42;;;;;;;;;;;;;;;;;;5065761;28;19978;-60
2023/03/16 00:27:08;;;;;;;;;;;;;;;;;;5065677;28;20381;-60
2023/03/16 00:29:34;;;;;;;;;;;;;;;;;;5064818;28;19978;-60
2023/03/16 00:32:00;;;;;;;;;;;;;;;;;;5065807;28;19924;-60
2023/03/16 00:34:28;;;;;;;;;;;;;;;;;;5065480;28;19959;-61
2023/03/16 00:36:54;;;;;;;;;;;;;;;;;;5065886;28;19974;-60
2023/03/16 00:39:21;;;;;;;;;;;;;;;;;;5065819;28;19924;-60
2023/03/16 00:41:47;;;;;;;;;;;;;;;;;;5065781;28;20008;-60
2023/03/16 00:44:13;;;;;;;;;;;;;;;;;;5064613;28;20011;-60
2023/03/16 00:46:41;;;;;;;;;;;;;;;;;;5065656;28;19970;-60
2023/03/16 00:49:08;;;;;;;;;;;;;;;;;;5065483;28;20285;-60
2023/03/16 00:51:34;;;;;;;;;;;;;;;;;;5061347;28;19925;-61
2023/03/16 00:54:00;;;;;;;;;;;;;;;;;;5065414;28;20404;-61
2023/03/16 00:56:26;;;;;;;;;;;;;;;;;;5065280;28;19949;-61
2023/03/16 00:58:56;;;;;;;;;;;;;;;;;;5065025;28;20318;-61
2023/03/16 01:01:22;;;;;;;;;;;;;;;;;;5065161;28;19924;-60
2023/03/16 01:03:48;;;;;;;;;;;;;;;;;;5064782;28;19931;-61
2023/03/16 01:06:15;;;;;;;;;;;;;;;;;;5064878;28;20481;-60
2023/03/16 01:08:41;;;;;;;;;;;;;;;;;;5065443;28;19935;-61
2023/03/16 01:11:09;;;;;;;;;;;;;;;;;;5064789;28;19931;-61
2023/03/16 01:13:35;;;;;;;;;;;;;;;;;;5064514;28;19959;-60
2023/03/16 01:16:01;;;;;;;;;;;;;;;;;;5064685;28;20386;-61
2023/03/16 01:18:27;;;;;;;;;;;;;;;;;;5064861;28;19924;-61
2023/03/16 01:20:53;;;;;;;;;;;;;;;;;;5065003;28;19970;-61
2023/03/16 01:23:19;;;;;;;;;;;;;;;;;;5065116;28;19925;-61
2023/03/16 01:25:52;;;;;;;;;;;;;;;;;;5046959;28;19924;-61
2023/03/16 01:28:19;;;;;;;;;;;;;;;;;;5063971;28;19932;-61
2023/03/16 01:30:45;;;;;;;;;;;;;;;;;;5065074;28;20386;-61
2023/03/16 01:33:11;;;;;;;;;;;;;;;;;;5064299;28;19924;-61
2023/03/16 01:35:37;;;;;;;;;;;;;;;;;;5063524;28;19977;-61
2023/03/16 01:38:03;;;;;;;;;;;;;;;;;;5064723;28;19935;-62
2023/03/16 01:40:30;;;;;;;;;;;;;;;;;;5064840;28;19933;-61
2023/03/16 01:42:56;;;;;;;;;;;;;;;;;;5063960;28;19931;-60
2023/03/16 01:45:22;;;;;;;;;;;;;;;;;;5064710;28;19928;-61
2023/03/16 01:47:48;;;;;;;;;;;;;;;;;;5064555;28;20302;-61
2023/03/16 01:50:16;;;;;;;;;;;;;;;;;;5064631;28;19972;-61
2023/03/16 01:52:42;;;;;;;;;;;;;;;;;;5064684;28;19924;-61
2023/03/16 01:55:08;;;;;;;;;;;;;;;;;;5064593;28;19925;-61
2023/03/16 01:57:35;;;;;;;;;;;;;;;;;;5064370;28;19935;-60
2023/03/16 02:00:08;;;;;;;;;;;;;;;;;;5064015;28;20433;-60
2023/03/16 02:02:34;;;;;;;;;;;;;;;;;;5064185;28;19925;-60
2023/03/16 02:05:00;;;;;;;;;;;;;;;;;;5139477;22;20663;-60
2023/03/16 02:07:26;;;;;;;;;;;;;;;;;;5041737;28;20012;-60
2023/03/16 02:09:52;;;;;;;;;;;;;;;;;;5044471;28;20015;-60
2023/03/16 02:12:18;;;;;;;;;;;;;;;;;;5043875;28;19925;-60
2023/03/16 02:14:45;;;;;;;;;;;;;;;;;;5044238;28;19929;-60
2023/03/16 02:17:11;;;;;;;;;;;;;;;;;;5047578;28;20299;-60
2023/03/16 02:19:37;;;;;;;;;;;;;;;;;;5048370;28;20287;-60
2023/03/16 02:22:03;;;;;;;;;;;;;;;;;;5044340;28;20019;-60
2023/03/16 02:24:29;;;;;;;;;;;;;;;;;;5043859;28;20414;-60
2023/03/16 02:26:55;;;;;;;;;;;;;;;;;;5047934;28;19925;-56
2023/03/16 02:29:21;;;;;;;;;;;;;;;;;;5047491;28;20026;-60
2023/03/16 02:31:47;;;;;;;;;;;;;;;;;;5048041;28;19963;-60
2023/03/16 02:34:13;;;;;;;;;;;;;;;;;;5047594;28;20324;-60
2023/03/16 02:36:39;;;;;;;;;;;;;;;;;;5048330;28;20366;-60
2023/03/16 02:39:05;;;;;;;;;;;;;;;;;;5043847;28;20012;-59
2023/03/16 02:41:31;;;;;;;;;;;;;;;;;;5048057;28;19925;-60
2023/03/16 02:43:57;;;;;;;;;;;;;;;;;;5047424;28;19970;-60
2023/03/16 02:46:23;;;;;;;;;;;;;;;;;;5047940;28;19936;-60
2023/03/16 02:48:49;;;;;;;;;;;;;;;;;;5048270;28;20410;-60
2023/03/16 02:51:16;;;;;;;;;;;;;;;;;;5047706;28;19929;-60
2023/03/16 02:53:41;;;;;;;;;;;;;;;;;;5048129;28;19992;-60
2023/03/16 02:56:08;;;;;;;;;;;;;;;;;;5047891;28;19968;-59
2023/03/16 02:58:34;;;;;;;;;;;;;;;;;;5046940;28;19925;-60
2023/03/16 03:01:00;;;;;;;;;;;;;;;;;;5047680;28;19932;-60
2023/03/16 03:03:26;;;;;;;;;;;;;;;;;;5047347;28;20627;-59
2023/03/16 03:05:52;;;;;;;;;;;;;;;;;;5047715;28;20680;-60
2023/03/16 03:08:20;;;;;;;;;;;;;;;;;;5047107;28;19929;-60
2023/03/16 03:10:46;;;;;;;;;;;;;;;;;;5047722;28;19925;-60
2023/03/16 03:13:12;;;;;;;;;;;;;;;;;;5046568;28;19925;-60
2023/03/16 03:15:39;;;;;;;;;;;;;;;;;;5047377;28;20279;-60
2023/03/16 03:18:05;;;;;;;;;;;;;;;;;;5047244;28;19974;-59
2023/03/16 03:20:31;;;;;;;;;;;;;;;;;;5047390;28;19932;-61
2023/03/16 03:22:57;;;;;;;;;;;;;;;;;;5043395;28;19976;-60
2023/03/16 03:25:23;;;;;;;;;;;;;;;;;;5046944;28;19936;-60
2023/03/16 03:27:49;;;;;;;;;;;;;;;;;;5046481;28;19932;-60
2023/03/16 03:30:15;;;;;;;;;;;;;;;;;;5029199;28;20390;-60
2023/03/16 03:32:42;;;;;;;;;;;;;;;;;;5028759;28;19991;-60
2023/03/16 03:35:11;;;;;;;;;;;;;;;;;;5046809;28;20073;-60
2023/03/16 03:37:37;;;;;;;;;;;;;;;;;;5046811;28;19986;-60
2023/03/16 03:40:03;;;;;;;;;;;;;;;;;;5047206;28;19972;-60
2023/03/16 03:42:29;;;;;;;;;;;;;;;;;;5046477;28;20002;-60
2023/03/16 03:44:55;;;;;;;;;;;;;;;;;;5029044;28;19932;-60
2023/03/16 03:47:21;;;;;;;;;;;;;;;;;;5046701;28;19925;-60
2023/03/16 03:49:47;;;;;;;;;;;;;;;;;;5047344;28;19924;-60
2023/03/16 03:52:13;;;;;;;;;;;;;;;;;;5046394;28;19928;-61
2023/03/16 03:54:39;;;;;;;;;;;;;;;;;;5046370;28;20013;-61
2023/03/16 03:57:05;;;;;;;;;;;;;;;;;;5046881;28;20020;-61
2023/03/16 03:59:31;;;;;;;;;;;;;;;;;;5045602;28;19938;-60
2023/03/16 04:01:57;;;;;;;;;;;;;;;;;;5046341;28;19928;-60
2023/03/16 04:04:23;;;;;;;;;;;;;;;;;;5046790;28;19924;-61
2023/03/16 04:06:50;;;;;;;;;;;;;;;;;;5046507;28;20370;-61
2023/03/16 04:09:16;;;;;;;;;;;;;;;;;;5046040;28;19947;-61
2023/03/16 04:11:42;;;;;;;;;;;;;;;;;;5046190;28;20304;-61
2023/03/16 04:14:08;;;;;;;;;;;;;;;;;;5045322;28;20389;-61
2023/03/16 04:16:34;;;;;;;;;;;;;;;;;;5045960;28;19921;-62
2023/03/16 04:19:00;;;;;;;;;;;;;;;;;;5046249;28;19931;-62
2023/03/16 04:21:26;;;;;;;;;;;;;;;;;;5046203;28;19998;-62
2023/03/16 04:23:53;;;;;;;;;;;;;;;;;;5046845;28;20382;-62
2023/03/16 04:26:19;;;;;;;;;;;;;;;;;;5045551;28;20011;-61
2023/03/16 04:28:45;;;;;;;;;;;;;;;;;;5045503;28;20211;-61
2023/03/16 04:31:12;;;;;;;;;;;;;;;;;;5045654;28;19925;-61
2023/03/16 04:33:38;;;;;;;;;;;;;;;;;;5045856;28;19955;-61
2023/03/16 04:36:04;;;;;;;;;;;;;;;;;;5045247;28;20302;-58
2023/03/16 04:38:32;;;;;;;;;;;;;;;;;;5045246;28;19924;-62
2023/03/16 04:40:58;;;;;;;;;;;;;;;;;;5045493;28;19928;-62
2023/03/16 04:43:24;;;;;;;;;;;;;;;;;;5045458;28;19939;-61
2023/03/16 04:45:50;;;;;;;;;;;;;;;;;;5046173;28;19928;-61
2023/03/16 04:48:16;;;;;;;;;;;;;;;;;;5045295;28;19944;-61
2023/03/16 04:50:42;;;;;;;;;;;;;;;;;;5046025;28;19929;-61
2023/03/16 04:53:08;;;;;;;;;;;;;;;;;;5045240;28;20437;-60
2023/03/16 04:55:34;;;;;;;;;;;;;;;;;;5045156;28;19932;-60
2023/03/16 04:58:00;;;;;;;;;;;;;;;;;;5044672;28;19932;-61
2023/03/16 05:00:26;;;;;;;;;;;;;;;;;;5044651;28;20370;-61
2023/03/16 05:02:52;;;;;;;;;;;;;;;;;;5045452;28;19935;-61
2023/03/16 05:05:18;;;;;;;;;;;;;;;;;;5045005;28;20016;-60
2023/03/16 05:07:44;;;;;;;;;;;;;;;;;;5045347;28;20350;-60
2023/03/16 05:10:10;;;;;;;;;;;;;;;;;;5044644;28;20438;-60
2023/03/16 05:12:36;;;;;;;;;;;;;;;;;;5044525;28;19920;-59
2023/03/16 05:15:02;;;;;;;;;;;;;;;;;;5027379;28;19929;-60
2023/03/16 05:17:28;;;;;;;;;;;;;;;;;;5044914;28;20484;-60
2023/03/16 05:19:54;;;;;;;;;;;;;;;;;;5045549;28;19924;-60
2023/03/16 05:22:20;;;;;;;;;;;;;;;;;;5045028;28;19925;-60
2023/03/16 05:24:46;;;;;;;;;;;;;;;;;;5045227;28;19928;-60
2023/03/16 05:27:12;;;;;;;;;;;;;;;;;;5044067;28;20414;-60
2023/03/16 05:29:38;;;;;;;;;;;;;;;;;;5044817;28;19978;-60
2023/03/16 05:32:05;;;;;;;;;;;;;;;;;;5044693;28;20364;-59
2023/03/16 05:34:31;;;;;;;;;;;;;;;;;;5044788;28;19933;-61
2023/03/16 05:36:57;;;;;;;;;;;;;;;;;;5044702;28;19924;-61
2023/03/16 05:39:23;;;;;;;;;;;;;;;;;;5044634;28;19925;-60
2023/03/16 05:41:49;;;;;;;;;;;;;;;;;;5045029;28;19931;-61
2023/03/16 05:44:15;;;;;;;;;;;;;;;;;;5043685;28;20020;-60
2023/03/16 05:46:41;;;;;;;;;;;;;;;;;;5044866;28;19924;-61
2023/03/16 05:49:07;;;;;;;;;;;;;;;;;;5044053;28;20623;-61
2023/03/16 05:51:33;;;;;;;;;;;;;;;;;;5044964;28;19928;-61
2023/03/16 05:53:59;;;;;;;;;;;;;;;;;;5044588;28;19967;-61
2023/03/16 05:56:25;;;;;;;;;;;;;;;;;;5042172;28;19925;-61
2023/03/16 05:58:51;;;;;;;;;;;;;;;;;;5044044;28;19925;-60
2023/03/16 06:01:18;;;;;;;;;;;;;;;;;;5025999;28;19928;-60
2023/03/16 06:03:45;;;;;;;;;;;;;;;;;;5043940;28;19928;-60
2023/03/16 06:06:11;;;;;;;;;;;;;;;;;;5043915;28;19925;-60
2023/03/16 06:08:37;;;;;;;;;;;;;;;;;;5042730;28;19940;-60
2023/03/16 06:11:03;;;;;;;;;;;;;;;;;;5044464;28;20362;-59
2023/03/16 06:13:29;;;;;;;;;;;;;;;;;;5044386;28;20457;-60
2023/03/16 06:15:55;;;;;;;;;;;;;;;;;;5044669;28;19925;-55
2023/03/16 06:18:21;;;;;;;;;;;;;;;;;;5045530;28;19921;-60
2023/03/16 06:20:47;;;;;;;;;;;;;;;;;;5045695;28;19925;-60
2023/03/16 06:23:13;;;;;;;;;;;;;;;;;;5045087;28;20275;-60
2023/03/16 06:25:39;;;;;;;;;;;;;;;;;;5044740;28;19966;-60
2023/03/16 06:28:05;;;;;;;;;;;;;;;;;;5044218;28;20047;-60
2023/03/16 06:30:32;;;;;;;;;;;;;;;;;;5037762;28;19939;-60
2023/03/16 06:32:59;;;;;;;;;;;;;;;;;;5026924;28;19972;-60
2023/03/16 06:35:25;;;;;;;;;;;;;;;;;;5038268;28;20310;-57
2023/03/16 06:37:51;;;;;;;;;;;;;;;;;;5045083;28;19931;-61
2023/03/16 06:40:17;;;;;;;;;;;;;;;;;;5044018;28;19933;-60
2023/03/16 06:42:43;;;;;;;;;;;;;;;;;;5043499;28;19950;-60
2023/03/16 06:45:09;;;;;;;;;;;;;;;;;;5043427;28;20271;-60
2023/03/16 06:47:35;;;;;;;;;;;;;;;;;;5040776;28;20473;-61
2023/03/16 06:50:01;;;;;;;;;;;;;;;;;;5043524;28;20015;-60
2023/03/16 06:52:27;;;;;;;;;;;;;;;;;;5042372;28;19965;-60
2023/03/16 06:54:53;;;;;;;;;;;;;;;;;;5044902;28;19925;-60
2023/03/16 06:57:19;;;;;;;;;;;;;;;;;;5043343;28;20036;-60
2023/03/16 06:59:45;;;;;;;;;;;;;;;;;;5042312;28;20560;-60
2023/03/16 07:02:12;;;;;;;;;;;;;;;;;;5047430;28;19948;-60
2023/03/16 07:04:38;;;;;;;;;;;;;;;;;;5047599;28;19925;-58
2023/03/16 07:07:04;;;;;;;;;;;;;;;;;;5047199;28;20028;-57
2023/03/16 07:09:30;;;;;;;;;;;;;;;;;;5047211;28;19931;-59
2023/03/16 07:11:56;;;;;;;;;;;;;;;;;;5047192;28;19925;-58
2023/03/16 07:14:23;;;;;;;;;;;;;;;;;;5047401;28;20374;-59
2023/03/16 07:16:51;;;;;;;;;;;;;;;;;;5048207;28;20263;-59
2023/03/16 07:19:17;;;;;;;;;;;;;;;;;;5047631;28;20064;-59
2023/03/16 07:21:43;;;;;;;;;;;;;;;;;;5047890;28;20441;-59
2023/03/16 07:24:09;;;;;;;;;;;;;;;;;;5047412;28;20011;-59
2023/03/16 07:26:35;;;;;;;;;;;;;;;;;;5047787;28;19924;-59
2023/03/16 07:29:03;;;;;;;;;;;;;;;;;;5047102;28;19924;-59
2023/03/16 07:31:31;;;;;;;;;;;;;;;;;;5047009;28;20466;-59
2023/03/16 07:33:57;;;;;;;;;;;;;;;;;;5047410;28;19931;-59
2023/03/16 07:36:23;;;;;;;;;;;;;;;;;;5047969;28;20378;-59
2023/03/16 07:38:50;;;;;;;;;;;;;;;;;;5047588;28;19979;-59
2023/03/16 07:41:16;;;;;;;;;;;;;;;;;;5047192;28;20663;-59
2023/03/16 07:43:43;;;;;;;;;;;;;;;;;;5046815;28;20016;-59
2023/03/16 07:46:12;;;;;;;;;;;;;;;;;;5047158;28;20309;-59
2023/03/16 07:48:38;;;;;;;;;;;;;;;;;;5047602;28;19929;-59
2023/03/16 07:51:04;;;;;;;;;;;;;;;;;;5047155;28;19925;-59
2023/03/16 07:53:30;;;;;;;;;;;;;;;;;;5047408;28;19970;-59
2023/03/16 07:55:56;;;;;;;;;;;;;;;;;;5047294;28;19924;-60
2023/03/16 07:58:22;;;;;;;;;;;;;;;;;;5046538;28;19924;-59
2023/03/16 08:00:48;;;;;;;;;;;;;;;;;;5046896;28;19931;-59
2023/03/16 08:03:14;;;;;;;;;;;;;;;;;;5047319;28;19937;-59
2023/03/16 08:05:40;;;;;;;;;;;;;;;;;;5047089;28;20386;-59
2023/03/16 08:08:08;;;;;;;;;;;;;;;;;;5046451;28;19931;-59
2023/03/16 08:10:34;;;;;;;;;;;;;;;;;;5046624;28;19978;-59
2023/03/16 08:13:00;;;;;;;;;;;;;;;;;;5046290;28;20366;-59
2023/03/16 08:15:26;;;;;;;;;;;;;;;;;;5046259;28;19924;-60
2023/03/16 08:17:52;;;;;;;;;;;;;;;;;;5047218;28;19924;-59
2023/03/16 08:20:19;;;;;;;;;;;;;;;;;;5046695;28;19925;-59
2023/03/16 08:22:46;;;;;;;;;;;;;;;;;;5047070;28;20287;-59
2023/03/16 08:25:12;;;;;;;;;;;;;;;;;;5046405;28;19958;-59
2023/03/16 08:27:37;;;;;;;;;;;;;;;;;;5045380;28;20310;-59
2023/03/16 08:30:04;;;;;;;;;;;;;;;;;;5046033;28;20036;-57
2023/03/16 08:32:30;;;;;;;;;;;;;;;;;;5046570;28;19971;-59
2023/03/16 08:34:57;;;;;;;;;;;;;;;;;;5046269;28;19972;-59
2023/03/16 08:37:23;;;;;;;;;;;;;;;;;;5046603;28;20216;-59
2023/03/16 08:39:51;;;;;;;;;;;;;;;;;;5046781;28;19928;-59
2023/03/16 08:42:19;;;;;;;;;;;;;;;;;;5045072;28;20755;-59
2023/03/16 08:44:46;;;;;;;;;;;;;;;;;;5028030;28;19932;-60
2023/03/16 08:47:13;;;;;;;;;;;;;;;;;;5045452;28;19990;-59
2023/03/16 08:49:40;;;;;;;;;;;;;;;;;;5046633;28;19925;-59
2023/03/16 08:52:09;;;;;;;;;;;;;;;;;;5045789;28;20434;-59
2023/03/16 08:54:35;;;;;;;;;;;;;;;;;;5045986;28;19963;-59
2023/03/16 08:57:01;;;;;;;;;;;;;;;;;;5045439;28;20341;-59
2023/03/16 08:59:28;;;;;;;;;;;;;;;;;;5045772;28;19929;-60
2023/03/16 09:01:54;;;;;;;;;;;;;;;;;;5046566;28;19924;-59
2023/03/16 09:04:20;;;;;;;;;;;;;;;;;;5045188;28;19964;-59
2023/03/16 09:06:46;;;;;;;;;;;;;;;;;;5045715;28;19932;-59
2023/03/16 09:09:12;;;;;;;;;;;;;;;;;;5045655;28;19925;-59
2023/03/16 09:11:41;;;;;;;;;;;;;;;;;;5044193;28;21373;-58
2023/03/16 09:14:07;;;;;;;;;;;;;;;;;;5045466;28;20025;-58
2023/03/16 09:16:34;;;;;;;;;;;;;;;;;;5045304;28;19974;-59
2023/03/16 09:19:00;;;;;;;;;;;;;;;;;;5045890;28;19968;-58
2023/03/16 09:21:27;;;;;;;;;;;;;;;;;;5045366;28;19970;-58
2023/03/16 09:23:53;;;;;;;;;;;;;;;;;;5045427;28;20363;-59
2023/03/16 09:26:19;;;;;;;;;;;;;;;;;;5027351;28;19964;-58
2023/03/16 09:28:45;;;;;;;;;;;;;;;;;;5027062;28;19978;-59
2023/03/16 09:31:11;;;;;;;;;;;;;;;;;;5045150;28;20015;-59
2023/03/16 09:33:38;;;;;;;;;;;;;;;;;;5027767;28;20015;-59
2023/03/16 09:36:04;;;;;;;;;;;;;;;;;;5045218;28;20332;-58
2023/03/16 09:38:31;;;;;;;;;;;;;;;;;;5045328;28;20366;-59
2023/03/16 09:40:57;;;;;;;;;;;;;;;;;;5044479;28;20289;-59
2023/03/16 09:43:23;;;;;;;;;;;;;;;;;;5045063;28;19978;-59
2023/03/16 09:45:50;;;;;;;;;;;;;;;;;;5027644;28;19920;-59
2023/03/16 09:48:16;;;;;;;;;;;;;;;;;;5044779;28;19948;-58
2023/03/16 09:50:42;;;;;;;;;;;;;;;;;;5045312;28;19925;-59
2023/03/16 09:53:08;;;;;;;;;;;;;;;;;;5045005;28;20392;-59
2023/03/16 09:55:34;;;;;;;;;;;;;;;;;;5045055;28;19932;-59
2023/03/16 09:58:00;;;;;;;;;;;;;;;;;;5044397;28;19925;-59
2023/03/16 10:00:26;;;;;;;;;;;;;;;;;;5044584;28;20286;-59
2023/03/16 10:02:52;;;;;;;;;;;;;;;;;;5045216;28;20366;-59
2023/03/16 10:05:19;;;;;;;;;;;;;;;;;;5044462;28;19925;-59
2023/03/16 10:07:45;;;;;;;;;;;;;;;;;;5045293;28;20367;-59
2023/03/16 10:10:11;;;;;;;;;;;;;;;;;;5044465;28;19925;-59
2023/03/16 10:12:40;;;;;;;;;;;;;;;;;;5044417;28;19924;-59
2023/03/16 10:15:06;;;;;;;;;;;;;;;;;;5044248;28;19928;-58
2023/03/16 10:17:32;;;;;;;;;;;;;;;;;;5045125;28;20310;-59
2023/03/16 10:19:58;;;;;;;;;;;;;;;;;;5044075;28;20074;-59
2023/03/16 10:22:25;;;;;;;;;;;;;;;;;;5044862;28;19940;-59
2023/03/16 10:24:51;;;;;;;;;;;;;;;;;;5044938;28;19947;-59
2023/03/16 10:27:17;;;;;;;;;;;;;;;;;;5043843;28;19928;-58
2023/03/16 10:29:43;;;;;;;;;;;;;;;;;;5044699;28;19928;-59
2023/03/16 10:32:10;;;;;;;;;;;;;;;;;;5044485;28;19925;-59
2023/03/16 10:34:36;;;;;;;;;;;;;;;;;;5044962;28;19960;-59
2023/03/16 10:37:02;;;;;;;;;;;;;;;;;;5048400;28;19979;-59
2023/03/16 10:39:28;;;;;;;;;;;;;;;;;;5048263;28;20370;-59
2023/03/16 10:41:54;;;;;;;;;;;;;;;;;;5048473;28;19920;-59
2023/03/16 10:44:20;;;;;;;;;;;;;;;;;;5048829;28;20546;-59
2023/03/16 10:46:48;;;;;;;;;;;;;;;;;;5048547;28;19925;-59
2023/03/16 10:49:14;;;;;;;;;;;;;;;;;;5048148;28;20017;-58
2023/03/16 10:51:40;;;;;;;;;;;;;;;;;;5048716;28;20401;-59
2023/03/16 10:54:06;;;;;;;;;;;;;;;;;;5048040;28;19932;-58
2023/03/16 10:56:32;;;;;;;;;;;;;;;;;;5047707;28;19925;-59
2023/03/16 10:58:59;;;;;;;;;;;;;;;;;;5048084;28;19928;-59
2023/03/16 11:01:26;;;;;;;;;;;;;;;;;;5048149;28;20046;-59
2023/03/16 11:03:53;;;;;;;;;;;;;;;;;;5048583;28;20661;-58
2023/03/16 11:06:20;;;;;;;;;;;;;;;;;;5047659;28;19933;-59
2023/03/16 11:08:46;;;;;;;;;;;;;;;;;;5048305;28;19932;-59
2023/03/16 11:11:13;;;;;;;;;;;;;;;;;;5047846;28;19995;-59
2023/03/16 11:13:39;;;;;;;;;;;;;;;;;;5047620;28;20393;-59
2023/03/16 11:16:05;;;;;;;;;;;;;;;;;;5046850;28;19925;-59
2023/03/16 11:18:31;;;;;;;;;;;;;;;;;;5030561;28;19931;-59
2023/03/16 11:20:57;;;;;;;;;;;;;;;;;;5047718;28;20353;-58
2023/03/16 11:23:24;;;;;;;;;;;;;;;;;;5048047;28;19929;-59
2023/03/16 11:25:50;;;;;;;;;;;;;;;;;;5048475;28;20355;-59
2023/03/16 11:28:16;;;;;;;;;;;;;;;;;;5047047;28;19929;-59
2023/03/16 11:30:42;;;;;;;;;;;;;;;;;;5047783;28;20401;-59
2023/03/16 11:33:08;;;;;;;;;;;;;;;;;;5047692;28;19925;-58
2023/03/16 11:35:34;;;;;;;;;;;;;;;;;;5046781;28;20007;-59
2023/03/16 11:38:00;;;;;;;;;;;;;;;;;;5046833;28;20016;-59
2023/03/16 11:40:27;;;;;;;;;;;;;;;;;;5047334;28;19932;-59
2023/03/16 11:42:53;;;;;;;;;;;;;;;;;;5047150;28;19925;-59
2023/03/16 11:45:19;;;;;;;;;;;;;;;;;;5046801;28;20290;-58
2023/03/16 11:47:45;;;;;;;;;;;;;;;;;;5028707;28;19954;-58
2023/03/16 11:50:11;;;;;;;;;;;;;;;;;;5046824;28;19925;-57
2023/03/16 11:52:38;;;;;;;;;;;;;;;;;;5047068;28;19940;-58
2023/03/16 11:55:04;;;;;;;;;;;;;;;;;;5046195;28;19932;-57
2023/03/16 11:57:31;;;;;;;;;;;;;;;;;;5046554;28;20012;-59
2023/03/16 11:59:57;;;;;;;;;;;;;;;;;;5047273;28;19947;-58
2023/03/16 12:02:23;;;;;;;;;;;;;;;;;;5047453;28;20381;-58
2023/03/16 12:04:49;;;;;;;;;;;;;;;;;;5046639;28;19924;-58
2023/03/16 12:07:15;;;;;;;;;;;;;;;;;;5046926;28;19963;-59
2023/03/16 12:09:42;;;;;;;;;;;;;;;;;;5046877;28;20457;-59
2023/03/16 12:12:08;;;;;;;;;;;;;;;;;;5045727;28;19963;-58
2023/03/16 12:14:34;;;;;;;;;;;;;;;;;;5027276;28;20279;-58
2023/03/16 12:17:00;;;;;;;;;;;;;;;;;;5046201;28;20362;-58
2023/03/16 12:19:26;;;;;;;;;;;;;;;;;;5046344;28;19929;-58
2023/03/16 12:21:53;;;;;;;;;;;;;;;;;;5046956;28;20435;-58
2023/03/16 12:24:28;;;;;;;;;;;;;;;;;;5041976;28;19929;-57
2023/03/16 12:26:59;;;;;;;;;;;;;;;;;;5042818;28;19928;-57
2023/03/16 12:29:25;;;;;;;;;;;;;;;;;;5043890;28;19925;-57
2023/03/16 12:31:51;;;;;;;;;;;;;;;;;;5044125;28;19935;-58
2023/03/16 12:34:17;;;;;;;;;;;;;;;;;;5045936;28;19925;-58
2023/03/16 12:36:43;;;;;;;;;;;;;;;;;;5046564;28;19964;-57
2023/03/16 12:39:10;;;;;;;;;;;;;;;;;;5046091;28;19925;-57
2023/03/16 12:41:36;;;;;;;;;;;;;;;;;;5044834;28;19986;-58
2023/03/16 12:44:02;;;;;;;;;;;;;;;;;;5046159;28;19925;-58
2023/03/16 12:46:29;;;;;;;;;;;;;;;;;;5045662;28;20453;-57
2023/03/16 12:48:55;;;;;;;;;;;;;;;;;;5044919;28;20016;-57
2023/03/16 12:51:21;;;;;;;;;;;;;;;;;;5030183;28;19965;-58
2023/03/16 12:53:47;;;;;;;;;;;;;;;;;;5038239;28;19964;-57
2023/03/16 12:56:14;;;;;;;;;;;;;;;;;;5044813;28;19971;-57
2023/03/16 12:58:40;;;;;;;;;;;;;;;;;;5044930;28;19967;-57
2023/03/16 13:01:06;;;;;;;;;;;;;;;;;;5044944;28;19987;-57
2023/03/16 13:03:32;;;;;;;;;;;;;;;;;;5045099;28;20460;-57
2023/03/16 13:05:58;;;;;;;;;;;;;;;;;;5045298;28;19971;-57
2023/03/16 13:08:24;;;;;;;;;;;;;;;;;;5045887;28;19932;-58
2023/03/16 13:10:50;;;;;;;;;;;;;;;;;;5045810;28;19925;-57
2023/03/16 13:13:17;;;;;;;;;;;;;;;;;;5044293;28;19949;-58
2023/03/16 13:15:46;;;;;;;;;;;;;;;;;;5045456;28;19929;-58
2023/03/16 13:18:12;;;;;;;;;;;;;;;;;;5045327;28;19973;-58
2023/03/16 13:20:38;;;;;;;;;;;;;;;;;;5045847;28;19928;-58
2023/03/16 13:23:06;;;;;;;;;;;;;;;;;;5045012;28;19973;-57
2023/03/16 13:25:35;;;;;;;;;;;;;;;;;;5045529;28;20008;-57
2023/03/16 13:28:01;;;;;;;;;;;;;;;;;;5044587;28;19924;-57
2023/03/16 13:30:28;;;;;;;;;;;;;;;;;;5045288;28;19925;-57
2023/03/16 13:32:54;;;;;;;;;;;;;;;;;;5045561;28;19995;-58
2023/03/16 13:35:20;;;;;;;;;;;;;;;;;;5043016;28;19932;-58
2023/03/16 13:37:47;;;;;;;;;;;;;;;;;;5045273;28;20508;-58
2023/03/16 13:40:13;;;;;;;;;;;;;;;;;;5045225;28;19925;-58
2023/03/16 13:42:39;;;;;;;;;;;;;;;;;;5043879;28;20604;-57
2023/03/16 13:45:06;;;;;;;;;;;;;;;;;;5040762;28;19925;-58
2023/03/16 13:47:32;;;;;;;;;;;;;;;;;;5044709;28;20023;-57
2023/03/16 13:49:58;;;;;;;;;;;;;;;;;;5040569;28;20015;-58
2023/03/16 13:52:24;;;;;;;;;;;;;;;;;;5043628;28;20382;-57
2023/03/16 13:54:51;;;;;;;;;;;;;;;;;;5045149;28;19928;-57
2023/03/16 13:57:17;;;;;;;;;;;;;;;;;;5043398;28;20658;-58
2023/03/16 13:59:44;;;;;;;;;;;;;;;;;;5044383;28;19920;-57
2023/03/16 14:02:10;;;;;;;;;;;;;;;;;;5044080;28;19929;-56
2023/03/16 14:04:36;;;;;;;;;;;;;;;;;;5025828;28;19925;-57
2023/03/16 14:07:02;;;;;;;;;;;;;;;;;;5042313;28;19974;-57
2023/03/16 14:09:29;;;;;;;;;;;;;;;;;;5043351;28;20016;-57
2023/03/16 14:11:56;;;;;;;;;;;;;;;;;;5044328;28;20597;-58
2023/03/16 14:14:22;;;;;;;;;;;;;;;;;;5050218;28;19972;-58
2023/03/16 14:16:48;;;;;;;;;;;;;;;;;;5050135;28;20346;-59
2023/03/16 14:19:15;;;;;;;;;;;;;;;;;;5050138;28;20637;-58
2023/03/16 14:21:42;;;;;;;;;;;;;;;;;;5049853;28;19947;-58
2023/03/16 14:24:08;;;;;;;;;;;;;;;;;;5049419;28;19927;-59
2023/03/16 14:26:34;;;;;;;;;;;;;;;;;;5049770;28;19928;-59
2023/03/16 14:29:01;;;;;;;;;;;;;;;;;;5050244;28;20020;-55
2023/03/16 14:31:27;;;;;;;;;;;;;;;;;;5050229;28;19925;-59
2023/03/16 14:33:53;;;;;;;;;;;;;;;;;;5050256;28;20042;-58
2023/03/16 14:36:19;;;;;;;;;;;;;;;;;;5050303;28;19936;-60
2023/03/16 14:38:47;;;;;;;;;;;;;;;;;;5050395;28;19929;-60
2023/03/16 14:41:13;;;;;;;;;;;;;;;;;;5049019;28;20378;-60
2023/03/16 14:43:40;;;;;;;;;;;;;;;;;;5050637;28;20395;-59
2023/03/16 14:46:06;;;;;;;;;;;;;;;;;;5049868;28;19925;-59
2023/03/16 14:48:32;;;;;;;;;;;;;;;;;;5050170;28;19932;-59
2023/03/16 14:50:58;;;;;;;;;;;;;;;;;;5049534;28;20347;-59
2023/03/16 14:53:27;;;;;;;;;;;;;;;;;;5032512;28;19972;-59
2023/03/16 14:55:53;;;;;;;;;;;;;;;;;;5050068;28;19925;-60
2023/03/16 14:58:19;;;;;;;;;;;;;;;;;;5049961;28;19929;-60
2023/03/16 15:00:45;;;;;;;;;;;;;;;;;;5050586;28;20287;-59
2023/03/16 15:03:11;;;;;;;;;;;;;;;;;;5049787;28;20379;-59
2023/03/16 15:05:37;;;;;;;;;;;;;;;;;;5049354;28;19925;-59
2023/03/16 15:08:04;;;;;;;;;;;;;;;;;;5049571;28;19937;-55
2023/03/16 15:10:31;;;;;;;;;;;;;;;;;;5050716;28;19925;-60
2023/03/16 15:13:12;;;;;;;;;;;;;;;;;;5049225;28;19921;-60
2023/03/16 15:15:38;;;;;;;;;;;;;;;;;;5049426;28;20015;-60
2023/03/16 15:18:04;;;;;;;;;;;;;;;;;;5049419;28;20381;-59
2023/03/16 15:20:32;;;;;;;;;;;;;;;;;;5049027;28;20012;-60
2023/03/16 15:22:58;;;;;;;;;;;;;;;;;;5046924;28;19920;-60
2023/03/16 15:25:24;;;;;;;;;;;;;;;;;;5047082;28;19939;-59
2023/03/16 15:27:50;;;;;;;;;;;;;;;;;;5046671;28;19929;-58
2023/03/16 15:30:16;;;;;;;;;;;;;;;;;;5046091;28;20047;-59
2023/03/16 15:32:42;;;;;;;;;;;;;;;;;;5046498;28;20014;-59
2023/03/16 15:35:08;;;;;;;;;;;;;;;;;;5047010;28;19975;-59
2023/03/16 15:37:34;;;;;;;;;;;;;;;;;;5047141;28;19933;-60
2023/03/16 15:40:00;;;;;;;;;;;;;;;;;;5047048;28;19925;-59
2023/03/16 15:42:26;;;;;;;;;;;;;;;;;;5045921;28;19939;-59
2023/03/16 15:44:52;;;;;;;;;;;;;;;;;;5047310;28;20367;-59
2023/03/16 15:47:19;;;;;;;;;;;;;;;;;;5046350;28;19932;-59
2023/03/16 15:49:45;;;;;;;;;;;;;;;;;;5046469;28;20386;-59
2023/03/16 15:52:11;;;;;;;;;;;;;;;;;;5046290;28;20394;-59
2023/03/16 15:54:37;;;;;;;;;;;;;;;;;;5046635;28;19929;-59
2023/03/16 15:57:04;;;;;;;;;;;;;;;;;;5045488;28;19933;-52
2023/03/16 15:59:30;;;;;;;;;;;;;;;;;;5028630;28;19925;-59
2023/03/16 16:01:56;;;;;;;;;;;;;;;;;;5046621;28;19925;-60
2023/03/16 16:04:23;;;;;;;;;;;;;;;;;;5046267;28;19925;-59
2023/03/16 16:06:51;;;;;;;;;;;;;;;;;;5046167;28;19931;-59
2023/03/16 16:09:17;;;;;;;;;;;;;;;;;;5045938;28;19924;-59
2023/03/16 16:11:45;;;;;;;;;;;;;;;;;;5045797;28;19924;-59
2023/03/16 16:14:12;;;;;;;;;;;;;;;;;;5046101;28;19929;-59
2023/03/16 16:16:38;;;;;;;;;;;;;;;;;;5045877;28;19971;-59
2023/03/16 16:19:04;;;;;;;;;;;;;;;;;;5046305;28;19929;-58
2023/03/16 16:21:31;;;;;;;;;;;;;;;;;;5045939;28;20341;-59
2023/03/16 16:23:57;;;;;;;;;;;;;;;;;;5046058;28;19928;-60
2023/03/16 16:26:23;;;;;;;;;;;;;;;;;;5045404;28;20062;-59
2023/03/16 16:28:50;;;;;;;;;;;;;;;;;;5045790;28;19928;-59
2023/03/16 16:31:16;;;;;;;;;;;;;;;;;;5044969;28;20333;-59
2023/03/16 16:33:42;;;;;;;;;;;;;;;;;;5044735;28;19950;-60
2023/03/16 16:36:08;;;;;;;;;;;;;;;;;;5045798;28;19929;-59
2023/03/16 16:38:34;;;;;;;;;;;;;;;;;;5045959;28;19933;-58